Time;durP1;ratioP1;P1;durP2;ratioP2;P2;SDS_P1;SDS_P2;PMS_P1;PMS_P2;Temp;Humidity;BMP_temperature;BMP_pressure;BME280_temperature;BME280_humidity;BME280_pressure;Samples;Min_cycle;Max_cycle;Signal;HPM_P1;HPM_P2
2021/09/24 00:00:11;;;;;;;8.32;7.53;;;17.50;90.70;;;;;;5084084;28;20097;-63
2021/09/24 00:02:37;;;;;;;12.35;8.20;;;17.50;90.70;;;;;;5068241;28;20035;-62
2021/09/24 00:05:02;;;;;;;8.50;7.57;;;17.50;90.70;;;;;;5067088;28;20028;-62
2021/09/24 00:07:28;;;;;;;9.52;8.40;;;17.50;90.80;;;;;;5084661;28;20489;-62
2021/09/24 00:09:53;;;;;;;9.35;7.78;;;17.50;90.80;;;;;;5084926;28;20024;-63
2021/09/24 00:12:19;;;;;;;9.27;8.15;;;17.50;90.80;;;;;;5081675;28;20479;-63
2021/09/24 00:14:44;;;;;;;8.98;7.45;;;17.50;90.80;;;;;;5065891;28;20508;-62
2021/09/24 00:17:10;;;;;;;11.55;8.07;;;17.50;90.80;;;;;;5086095;28;20042;-63
2021/09/24 00:19:35;;;;;;;9.07;7.63;;;17.40;91.10;;;;;;5063649;28;20035;-62
2021/09/24 00:22:01;;;;;;;8.85;7.78;;;17.40;90.80;;;;;;5065389;28;20063;-63
2021/09/24 00:24:26;;;;;;;8.38;7.57;;;17.40;91.20;;;;;;5063675;28;20063;-62
2021/09/24 00:26:52;;;;;;;10.25;8.05;;;17.40;90.90;;;;;;5065722;28;20035;-63
2021/09/24 00:29:17;;;;;;;8.77;7.63;;;17.30;90.80;;;;;;5085452;28;20039;-63
2021/09/24 00:31:43;;;;;;;8.55;7.57;;;17.30;90.90;;;;;;5080629;28;20031;-63
2021/09/24 00:34:09;;;;;;;10.00;8.13;;;17.30;90.90;;;;;;5084868;28;20028;-62
2021/09/24 00:36:34;;;;;;;8.68;7.55;;;17.30;90.90;;;;;;5048210;28;20297;-62
2021/09/24 00:38:59;;;;;;;8.88;7.97;;;17.30;90.90;;;;;;5082505;28;20032;-62
2021/09/24 00:41:25;;;;;;;9.07;7.82;;;17.30;90.90;;;;;;5065965;28;20052;-62
2021/09/24 00:43:51;;;;;;;8.48;7.57;;;17.30;90.90;;;;;;5066900;28;20467;-63
2021/09/24 00:46:16;;;;;;;8.52;7.53;;;17.30;91.00;;;;;;5082128;28;20028;-63
2021/09/24 00:48:42;;;;;;;8.55;7.30;;;17.30;91.00;;;;;;5081241;28;20040;-62
2021/09/24 00:51:07;;;;;;;10.02;7.22;;;17.20;91.00;;;;;;5082998;28;20059;-62
2021/09/24 00:53:33;;;;;;;9.80;8.48;;;17.20;91.00;;;;;;5066214;28;20044;-63
2021/09/24 00:55:58;;;;;;;11.43;8.10;;;17.20;91.00;;;;;;5064026;28;20411;-62
2021/09/24 00:58:24;;;;;;;8.75;7.85;;;17.20;91.00;;;;;;5063759;28;20106;-63
2021/09/24 01:00:49;;;;;;;9.32;8.32;;;17.20;91.00;;;;;;5082507;28;20059;-63
2021/09/24 01:03:15;;;;;;;9.45;8.45;;;17.20;91.00;;;;;;5081665;28;20031;-63
2021/09/24 01:05:41;;;;;;;9.93;8.90;;;17.20;91.10;;;;;;5062565;28;20024;-63
2021/09/24 01:08:06;;;;;;;9.57;8.55;;;17.10;91.00;;;;;;5047104;28;20046;-63
2021/09/24 01:10:32;;;;;;;10.45;8.68;;;17.10;91.10;;;;;;5083349;28;20503;-62
2021/09/24 01:12:57;;;;;;;11.23;7.75;;;17.10;91.10;;;;;;5066830;28;20028;-62
2021/09/24 01:15:23;;;;;;;12.57;8.40;;;17.10;91.10;;;;;;5063934;28;20365;-62
2021/09/24 01:17:48;;;;;;;18.75;9.40;;;17.10;91.10;;;;;;5078688;28;20594;-63
2021/09/24 01:20:16;;;;;;;23.45;9.35;;;17.00;91.10;;;;;;5061732;28;20215;-63
2021/09/24 01:22:41;;;;;;;19.92;9.25;;;17.10;91.20;;;;;;5084279;28;20036;-63
2021/09/24 01:25:07;;;;;;;27.92;9.48;;;17.00;91.20;;;;;;5063462;28;20114;-62
2021/09/24 01:27:33;;;;;;;21.77;9.52;;;17.00;91.20;;;;;;5064317;28;20040;-63
2021/09/24 01:29:59;;;;;;;20.50;9.05;;;17.00;91.30;;;;;;5080725;28;20036;-63
2021/09/24 01:32:24;;;;;;;17.02;9.45;;;17.00;91.30;;;;;;5065796;28;20028;-63
2021/09/24 01:34:50;;;;;;;19.65;13.32;;;17.00;91.40;;;;;;5061027;28;20035;-63
2021/09/24 01:37:15;;;;;;;13.32;10.55;;;17.00;91.40;;;;;;5060315;28;20349;-62
2021/09/24 01:39:41;;;;;;;15.55;9.90;;;16.90;91.30;;;;;;5084152;28;20046;-63
2021/09/24 01:42:07;;;;;;;15.52;9.60;;;16.90;91.30;;;;;;5063302;28;20507;-62
2021/09/24 01:44:32;;;;;;;21.25;10.20;;;16.90;91.30;;;;;;5045685;28;20164;-62
2021/09/24 01:46:58;;;;;;;14.50;9.68;;;16.90;91.30;;;;;;5059302;28;20024;-61
2021/09/24 01:49:23;;;;;;;19.50;9.90;;;16.90;91.40;;;;;;5060656;28;20020;-60
2021/09/24 01:51:49;;;;;;;16.85;9.93;;;16.90;91.50;;;;;;5076758;28;20028;-62
2021/09/24 01:54:15;;;;;;;14.18;9.25;;;16.90;91.50;;;;;;5079741;28;20058;-63
2021/09/24 01:56:41;;;;;;;23.33;9.95;;;16.80;91.50;;;;;;5079825;28;20055;-62
2021/09/24 01:59:06;;;;;;;18.33;9.80;;;16.80;91.60;;;;;;5062263;28;20063;-63
2021/09/24 02:01:32;;;;;;;13.90;9.73;;;16.80;91.60;;;;;;5062217;28;20459;-63
2021/09/24 02:03:57;;;;;;;13.55;9.43;;;16.70;91.60;;;;;;5057840;28;20020;-63
2021/09/24 02:06:23;;;;;;;12.07;9.77;;;16.80;91.60;;;;;;5060113;28;20036;-62
2021/09/24 02:08:48;;;;;;;15.77;9.77;;;16.80;91.60;;;;;;5060828;28;20048;-62
2021/09/24 02:11:14;;;;;;;20.58;10.15;;;16.80;91.60;;;;;;5081142;28;20777;-63
2021/09/24 02:13:40;;;;;;;11.07;8.85;;;16.80;91.70;;;;;;5061053;28;20142;-62
2021/09/24 02:16:07;;;;;;;11.52;8.32;;;16.80;91.60;;;;;;5062106;28;20127;-62
2021/09/24 02:18:32;;;;;;;12.05;9.55;;;16.70;91.60;;;;;;5077670;28;20047;-62
2021/09/24 02:20:58;;;;;;;16.73;10.23;;;16.70;91.60;;;;;;5078756;28;20111;-63
2021/09/24 02:23:23;;;;;;;13.52;10.32;;;16.70;91.60;;;;;;5078762;28;20491;-60
2021/09/24 02:25:49;;;;;;;11.93;10.40;;;16.70;91.60;;;;;;5081967;28;20032;-60
2021/09/24 02:28:14;;;;;;;16.08;9.77;;;16.70;91.70;;;;;;5048267;28;20032;-60
2021/09/24 02:30:40;;;;;;;11.93;9.70;;;16.70;91.80;;;;;;5081662;28;20058;-60
2021/09/24 02:33:05;;;;;;;10.05;9.02;;;16.70;91.80;;;;;;5055833;28;20043;-60
2021/09/24 02:35:31;;;;;;;17.73;9.75;;;16.70;91.70;;;;;;5054477;28;20036;-60
2021/09/24 02:37:56;;;;;;;10.35;9.13;;;16.70;91.70;;;;;;5062299;28;20089;-60
2021/09/24 02:40:22;;;;;;;13.70;9.50;;;16.70;91.70;;;;;;5075710;28;20162;-62
2021/09/24 02:42:47;;;;;;;11.52;9.13;;;16.60;91.70;;;;;;5060342;28;20135;-62
2021/09/24 02:45:13;;;;;;;13.52;8.65;;;16.70;91.70;;;;;;5058560;28;20043;-63
2021/09/24 02:47:38;;;;;;;15.27;8.90;;;16.70;91.70;;;;;;5058205;28;20055;-63
2021/09/24 02:50:05;;;;;;;11.07;9.23;;;16.70;91.70;;;;;;5059404;28;20024;-62
2021/09/24 02:52:31;;;;;;;10.20;8.60;;;16.60;91.70;;;;;;5074753;28;20195;-63
2021/09/24 02:54:56;;;;;;;10.70;9.23;;;16.60;91.70;;;;;;5061139;28;20576;-62
2021/09/24 02:57:22;;;;;;;12.10;8.45;;;16.60;91.70;;;;;;5079708;28;20675;-62
2021/09/24 02:59:47;;;;;;;10.57;8.60;;;16.60;91.80;;;;;;5061446;28;20039;-63
2021/09/24 03:02:13;;;;;;;10.50;8.00;;;16.60;91.80;;;;;;5061333;28;20100;-62
2021/09/24 03:04:38;;;;;;;11.73;8.73;;;16.60;91.80;;;;;;5060380;28;20075;-63
2021/09/24 03:07:04;;;;;;;12.15;8.68;;;16.60;91.80;;;;;;5082540;28;20063;-62
2021/09/24 03:09:29;;;;;;;11.82;8.43;;;16.60;91.80;;;;;;5063135;28;20166;-63
2021/09/24 03:11:55;;;;;;;10.23;8.02;;;16.60;91.90;;;;;;5082539;28;20139;-63
2021/09/24 03:14:20;;;;;;;13.00;8.43;;;16.50;91.90;;;;;;5077703;28;20036;-62
2021/09/24 03:16:46;;;;;;;8.80;7.90;;;16.50;91.90;;;;;;5081488;28;20071;-62
2021/09/24 03:19:17;;;;;;;11.80;9.15;;;16.50;92.00;;;;;;5078287;28;20676;-62
2021/09/24 03:21:43;;;;;;;11.57;8.15;;;16.50;92.00;;;;;;5076837;28;20506;-62
2021/09/24 03:24:08;;;;;;;10.88;8.35;;;16.50;92.00;;;;;;5063767;28;20044;-62
2021/09/24 03:26:34;;;;;;;9.30;8.00;;;16.50;92.00;;;;;;5060913;28;20481;-63
2021/09/24 03:28:59;;;;;;;84.55;14.77;;;16.50;92.00;;;;;;5080492;28;20047;-62
2021/09/24 03:31:25;;;;;;;27.70;10.45;;;16.50;92.00;;;;;;5059895;28;20047;-62
2021/09/24 03:33:50;;;;;;;132.13;16.92;;;16.50;92.00;;;;;;5077817;28;20106;-63
2021/09/24 03:36:16;;;;;;;59.90;13.63;;;16.50;92.00;;;;;;5081103;28;20509;-63
2021/09/24 03:38:41;;;;;;;39.50;10.82;;;16.50;92.00;;;;;;5077806;28;20131;-62
2021/09/24 03:41:07;;;;;;;31.23;11.40;;;16.40;92.00;;;;;;5080999;28;20155;-62
2021/09/24 03:43:32;;;;;;;44.50;11.57;;;16.40;91.90;;;;;;5080530;28;20052;-62
2021/09/24 03:45:58;;;;;;;43.13;11.85;;;16.40;92.20;;;;;;5080871;28;20200;-63
2021/09/24 03:48:23;;;;;;;28.58;11.20;;;16.40;91.90;;;;;;5060845;28;20503;-63
2021/09/24 03:50:49;;;;;;;30.73;10.10;;;16.40;91.90;;;;;;5078636;28;20073;-63
2021/09/24 03:53:14;;;;;;;34.40;10.10;;;16.40;91.90;;;;;;5061578;28;20101;-62
2021/09/24 03:55:40;;;;;;;30.20;11.00;;;16.40;91.90;;;;;;5062699;28;20040;-62
2021/09/24 03:58:05;;;;;;;29.02;10.07;;;16.40;92.10;;;;;;5081112;28;20089;-62
2021/09/24 04:00:31;;;;;;;27.85;11.15;;;16.40;91.90;;;;;;5079784;28;20117;-62
2021/09/24 04:02:56;;;;;;;35.75;10.48;;;16.40;91.90;;;;;;5079859;28;20148;-63
2021/09/24 04:05:22;;;;;;;40.05;10.75;;;16.40;91.90;;;;;;5059620;28;20082;-62
2021/09/24 04:07:47;;;;;;;45.30;10.23;;;16.40;91.80;;;;;;5078403;28;20209;-62
2021/09/24 04:10:13;;;;;;;25.63;10.23;;;16.40;91.80;;;;;;5081653;28;20362;-63
2021/09/24 04:12:39;;;;;;;29.58;9.65;;;16.30;91.90;;;;;;5045054;28;20046;-63
2021/09/24 04:15:05;;;;;;;22.23;9.90;;;16.30;92.00;;;;;;5078070;28;20041;-62
2021/09/24 04:17:30;;;;;;;25.73;9.23;;;16.30;92.00;;;;;;5062073;28;20040;-62
2021/09/24 04:19:56;;;;;;;28.65;10.18;;;16.30;92.10;;;;;;5074005;28;20050;-62
2021/09/24 04:22:21;;;;;;;27.40;9.07;;;16.30;92.10;;;;;;5077658;28;20394;-62
2021/09/24 04:24:47;;;;;;;72.43;12.63;;;16.30;92.10;;;;;;5078523;28;20396;-62
2021/09/24 04:27:12;;;;;;;126.78;15.02;;;16.30;92.10;;;;;;5062674;28;20081;-62
2021/09/24 04:29:38;;;;;;;67.13;11.02;;;16.30;92.50;;;;;;5079958;28;20169;-62
2021/09/24 04:32:04;;;;;;;30.50;10.45;;;16.20;92.20;;;;;;5082561;28;20453;-62
2021/09/24 04:34:29;;;;;;;29.38;10.05;;;16.20;92.20;;;;;;5079968;28;20032;-62
2021/09/24 04:36:55;;;;;;;34.97;10.27;;;16.30;92.20;;;;;;5083908;28;20035;-62
2021/09/24 04:39:20;;;;;;;34.25;11.50;;;16.20;92.10;;;;;;5062075;28;20538;-62
2021/09/24 04:41:46;;;;;;;47.65;10.77;;;16.20;92.10;;;;;;5082686;28;20552;-62
2021/09/24 04:44:11;;;;;;;32.33;9.85;;;16.20;92.10;;;;;;5064921;28;20074;-62
2021/09/24 04:46:37;;;;;;;35.13;9.90;;;16.20;92.20;;;;;;5085342;28;20032;-62
2021/09/24 04:49:02;;;;;;;37.55;11.30;;;16.20;92.20;;;;;;5062539;28;20495;-63
2021/09/24 04:51:28;;;;;;;27.50;9.00;;;16.10;92.20;;;;;;5063389;28;20761;-62
2021/09/24 04:53:53;;;;;;;28.15;9.95;;;16.10;92.20;;;;;;5083635;28;20364;-62
2021/09/24 04:56:19;;;;;;;27.77;10.15;;;16.10;92.20;;;;;;5079882;28;22060;-62
2021/09/24 04:58:44;;;;;;;33.53;9.60;;;16.10;92.20;;;;;;5062629;28;20040;-62
2021/09/24 05:01:10;;;;;;;39.95;9.57;;;16.10;92.20;;;;;;5079781;28;20062;-62
2021/09/24 05:03:35;;;;;;;65.38;11.73;;;16.10;92.30;;;;;;5061078;28;20107;-62
2021/09/24 05:06:01;;;;;;;25.45;8.95;;;16.00;92.20;;;;;;5079926;28;20114;-62
2021/09/24 05:08:26;;;;;;;58.58;10.93;;;16.00;92.20;;;;;;5077500;28;20036;-62
2021/09/24 05:10:52;;;;;;;37.10;9.60;;;16.00;92.20;;;;;;5083412;28;20036;-62
2021/09/24 05:13:17;;;;;;;65.93;11.50;;;16.00;92.10;;;;;;5064377;28;20077;-62
2021/09/24 05:15:43;;;;;;;34.30;9.05;;;16.00;92.10;;;;;;5081075;28;20227;-62
2021/09/24 05:18:08;;;;;;;28.13;8.30;;;16.00;92.20;;;;;;5083616;28;20787;-62
2021/09/24 05:20:34;;;;;;;35.50;8.55;;;16.00;92.20;;;;;;5073436;28;20020;-63
2021/09/24 05:22:59;;;;;;;25.73;8.90;;;16.00;92.10;;;;;;5081063;28;20093;-62
2021/09/24 05:25:25;;;;;;;24.25;8.18;;;16.00;92.10;;;;;;5066080;28;20025;-63
2021/09/24 05:27:51;;;;;;;19.60;8.10;;;16.00;92.10;;;;;;5062597;28;20036;-63
2021/09/24 05:30:16;;;;;;;29.23;10.25;;;16.00;92.20;;;;;;5083405;28;20024;-62
2021/09/24 05:32:42;;;;;;;27.60;7.70;;;15.90;92.10;;;;;;5066610;28;20169;-63
2021/09/24 05:35:08;;;;;;;27.88;8.32;;;15.90;92.10;;;;;;5063543;28;20092;-62
2021/09/24 05:37:33;;;;;;;17.80;8.02;;;16.00;92.20;;;;;;5063973;28;20544;-62
2021/09/24 05:39:59;;;;;;;24.00;7.63;;;15.90;92.10;;;;;;5064029;28;20377;-63
2021/09/24 05:42:24;;;;;;;20.73;8.48;;;15.90;92.20;;;;;;5082947;28;20078;-62
2021/09/24 05:44:50;;;;;;;17.48;7.85;;;15.90;92.20;;;;;;5083379;28;20406;-62
2021/09/24 05:47:15;;;;;;;22.25;8.10;;;15.90;92.20;;;;;;5063086;28;20484;-62
2021/09/24 05:49:41;;;;;;;25.67;8.82;;;15.90;92.20;;;;;;5060616;28;20511;-62
2021/09/24 05:52:06;;;;;;;17.10;7.53;;;15.90;92.30;;;;;;5062666;28;20050;-62
2021/09/24 05:54:32;;;;;;;12.70;8.30;;;15.90;92.30;;;;;;5064232;28;20040;-62
2021/09/24 05:56:58;;;;;;;15.13;8.02;;;15.90;92.30;;;;;;5077744;28;20047;-62
2021/09/24 05:59:23;;;;;;;21.02;8.57;;;15.90;92.30;;;;;;5060827;28;20040;-62
2021/09/24 06:01:49;;;;;;;17.33;7.78;;;15.90;92.20;;;;;;5028839;28;20089;-63
2021/09/24 06:04:15;;;;;;;17.15;7.93;;;15.80;92.20;;;;;;5042886;28;20120;-62
2021/09/24 06:06:41;;;;;;;19.67;8.52;;;15.90;92.20;;;;;;5064636;28;20200;-62
2021/09/24 06:09:07;;;;;;;27.75;9.35;;;15.90;92.20;;;;;;5063866;28;20083;-63
2021/09/24 06:11:32;;;;;;;16.52;8.82;;;15.90;92.30;;;;;;5083409;28;20529;-62
2021/09/24 06:13:58;;;;;;;17.95;9.50;;;15.90;92.30;;;;;;5082585;28;20147;-62
2021/09/24 06:16:23;;;;;;;15.38;9.32;;;15.90;92.60;;;;;;5078779;28;20064;-62
2021/09/24 06:18:51;;;;;;;20.67;10.07;;;15.90;92.30;;;;;;5061574;28;20070;-62
2021/09/24 06:21:18;;;;;;;25.58;10.77;;;15.90;92.40;;;;;;5062740;28;20032;-63
2021/09/24 06:23:44;;;;;;;26.50;10.73;;;15.90;92.60;;;;;;5062549;28;20514;-63
2021/09/24 06:26:09;;;;;;;22.73;11.02;;;15.90;92.60;;;;;;5048708;28;20024;-62
2021/09/24 06:28:35;;;;;;;20.95;10.68;;;15.90;92.90;;;;;;5075293;28;20239;-62
2021/09/24 06:31:00;;;;;;;15.38;9.88;;;15.90;92.90;;;;;;5078970;28;20078;-62
2021/09/24 06:33:26;;;;;;;22.30;10.20;;;15.90;92.80;;;;;;5059643;28;20050;-63
2021/09/24 06:35:52;;;;;;;29.98;12.05;;;16.00;92.80;;;;;;5079545;28;20075;-62
2021/09/24 06:38:17;;;;;;;21.95;10.82;;;16.00;92.80;;;;;;5053886;28;20599;-62
2021/09/24 06:40:43;;;;;;;21.45;11.88;;;16.00;92.80;;;;;;5081181;28;20542;-62
2021/09/24 06:43:09;;;;;;;29.80;12.55;;;16.00;92.70;;;;;;5071834;28;20120;-62
2021/09/24 06:45:35;;;;;;;37.83;12.70;;;16.00;93.00;;;;;;5057154;28;20422;-62
2021/09/24 06:48:01;;;;;;;22.50;11.25;;;16.00;93.10;;;;;;5063037;28;20040;-62
2021/09/24 06:50:26;;;;;;;24.15;11.60;;;16.00;93.30;;;;;;5078050;28;20030;-62
2021/09/24 06:52:52;;;;;;;27.23;12.10;;;16.00;93.30;;;;;;5080823;28;20112;-62
2021/09/24 06:55:25;;;;;;;34.83;11.43;;;16.00;93.10;;;;;;5078566;28;20042;-62
2021/09/24 06:57:50;;;;;;;26.50;13.23;;;16.00;93.20;;;;;;5060697;28;20369;-63
2021/09/24 07:00:16;;;;;;;24.52;11.55;;;16.10;93.60;;;;;;5041706;28;20101;-62
2021/09/24 07:02:41;;;;;;;28.88;13.07;;;16.00;93.60;;;;;;5082568;28;20027;-62
2021/09/24 07:05:07;;;;;;;33.33;14.45;;;16.00;93.50;;;;;;5079464;28;20040;-62
2021/09/24 07:07:33;;;;;;;28.85;14.15;;;16.00;93.70;;;;;;5061919;28;20123;-63
2021/09/24 07:09:58;;;;;;;21.95;14.52;;;16.00;93.90;;;;;;5060751;28;20024;-62
2021/09/24 07:12:25;;;;;;;31.88;14.52;;;15.90;94.20;;;;;;5078895;28;20063;-62
2021/09/24 07:14:50;;;;;;;27.48;14.40;;;15.90;94.30;;;;;;5062424;28;20031;-62
2021/09/24 07:17:16;;;;;;;31.98;15.10;;;15.90;94.50;;;;;;5079933;28;20084;-62
2021/09/24 07:19:41;;;;;;;35.30;15.43;;;15.90;94.80;;;;;;5060269;28;20036;-62
2021/09/24 07:22:08;;;;;;;51.45;16.05;;;15.80;95.00;;;;;;5079562;28;20107;-62
2021/09/24 07:24:34;;;;;;;40.28;15.35;;;15.90;95.00;;;;;;5061652;28;20044;-62
2021/09/24 07:26:59;;;;;;;36.60;16.60;;;15.90;95.20;;;;;;5078772;28;20051;-62
2021/09/24 07:29:25;;;;;;;42.47;16.10;;;15.90;95.30;;;;;;5073144;28;20155;-62
2021/09/24 07:31:50;;;;;;;42.42;17.90;;;15.90;95.70;;;;;;5077957;28;20024;-63
2021/09/24 07:34:16;;;;;;;39.70;17.67;;;15.90;96.10;;;;;;5078455;28;20021;-62
2021/09/24 07:36:41;;;;;;;35.47;17.15;;;15.90;96.20;;;;;;5059592;28;20048;-62
2021/09/24 07:39:07;;;;;;;35.08;15.57;;;15.90;96.40;;;;;;5054940;28;20621;-63
2021/09/24 07:41:33;;;;;;;41.55;17.88;;;15.90;96.10;;;;;;5058705;28;20119;-63
2021/09/24 07:43:59;;;;;;;41.28;16.42;;;15.90;96.20;;;;;;5044355;28;20086;-62
2021/09/24 07:46:25;;;;;;;39.72;16.77;;;15.90;96.40;;;;;;5062446;28;20649;-63
2021/09/24 07:48:50;;;;;;;48.28;16.25;;;15.90;96.60;;;;;;5059604;28;20138;-62
2021/09/24 07:51:16;;;;;;;34.33;15.27;;;15.80;96.60;;;;;;5060541;28;20063;-62
2021/09/24 07:53:41;;;;;;;41.85;16.42;;;15.90;96.80;;;;;;5078732;28;20077;-62
2021/09/24 07:56:07;;;;;;;60.80;17.95;;;15.90;96.80;;;;;;5080159;28;20411;-67
2021/09/24 07:58:33;;;;;;;70.18;19.02;;;15.90;97.00;;;;;;5060699;28;20063;-63
2021/09/24 08:00:59;;;;;;;52.63;18.23;;;15.90;97.00;;;;;;5057424;28;20024;-63
2021/09/24 08:03:25;;;;;;;32.53;15.73;;;16.00;97.30;;;;;;5061061;28;20040;-63
2021/09/24 08:05:50;;;;;;;39.95;17.80;;;16.00;97.60;;;;;;5047075;28;20062;-64
2021/09/24 08:08:16;;;;;;;45.58;17.67;;;16.00;97.60;;;;;;5082540;28;20036;-63
2021/09/24 08:10:41;;;;;;;47.53;16.15;;;16.00;97.80;;;;;;5065515;28;20027;-63
2021/09/24 08:13:07;;;;;;;42.03;15.88;;;16.00;97.70;;;;;;5058645;28;20578;-63
2021/09/24 08:15:34;;;;;;;46.53;16.75;;;16.00;97.70;;;;;;5080979;28;20094;-63
2021/09/24 08:17:59;;;;;;;40.45;15.43;;;16.10;97.90;;;;;;5079970;28;20476;-62
2021/09/24 08:20:25;;;;;;;46.30;17.05;;;16.10;97.60;;;;;;5084150;28;20039;-63
2021/09/24 08:22:50;;;;;;;100.38;20.58;;;16.10;97.90;;;;;;5031592;28;20024;-62
2021/09/24 08:25:17;;;;;;;70.25;19.45;;;16.10;98.00;;;;;;5061843;28;20122;-63
2021/09/24 08:27:42;;;;;;;88.45;19.38;;;16.20;98.60;;;;;;5077618;28;20040;-62
2021/09/24 08:30:10;;;;;;;55.10;17.02;;;16.20;98.00;;;;;;5061315;28;20419;-63
2021/09/24 08:32:38;;;;;;;60.92;19.23;;;16.20;98.00;;;;;;5063675;28;20127;-63
2021/09/24 08:35:05;;;;;;;53.85;16.83;;;16.20;98.40;;;;;;5061370;28;20036;-63
2021/09/24 08:37:31;;;;;;;87.55;20.55;;;16.20;98.40;;;;;;5062695;28;20288;-62
2021/09/24 08:39:56;;;;;;;68.03;20.75;;;16.20;98.60;;;;;;5047709;28;20031;-62
2021/09/24 08:42:22;;;;;;;67.75;20.65;;;16.30;98.90;;;;;;5047537;28;20087;-60
2021/09/24 08:44:49;;;;;;;65.18;20.45;;;16.30;99.10;;;;;;5063288;28;20028;-61
2021/09/24 08:47:15;;;;;;;51.20;18.40;;;16.30;99.50;;;;;;5062618;28;20028;-60
2021/09/24 08:49:40;;;;;;;68.25;18.75;;;16.30;99.40;;;;;;5065157;28;20049;-61
2021/09/24 08:52:06;;;;;;;71.70;20.15;;;16.30;99.10;;;;;;5083734;28;20162;-61
2021/09/24 08:54:31;;;;;;;76.30;20.58;;;16.40;99.30;;;;;;5060875;28;20028;-61
2021/09/24 08:56:57;;;;;;;63.03;19.25;;;16.40;99.40;;;;;;5082460;28;20513;-61
2021/09/24 08:59:23;;;;;;;62.92;19.42;;;16.40;99.30;;;;;;5079786;28;20036;-61
2021/09/24 09:02:02;;;;;;;59.55;19.60;;;16.40;99.20;;;;;;5063671;28;20028;-61
2021/09/24 09:04:38;;;;;;;98.10;22.55;;;16.50;99.00;;;;;;5061933;28;20134;-61
2021/09/24 09:07:07;;;;;;;87.45;20.05;;;16.50;99.00;;;;;;5091065;28;20039;-61
2021/09/24 09:09:41;;;;;;;68.22;18.38;;;16.60;99.00;;;;;;5080800;28;21051;-61
2021/09/24 09:12:14;;;;;;;67.70;18.50;;;16.60;98.80;;;;;;5059100;28;20472;-61
2021/09/24 09:14:40;;;;;;;83.97;20.65;;;16.60;98.80;;;;;;5062493;28;20016;-61
2021/09/24 09:17:28;;;;;;;96.65;19.75;;;16.70;99.00;;;;;;5064210;28;20083;-61
2021/09/24 09:20:19;;;;;;;77.35;19.55;;;16.70;99.00;;;;;;5078302;28;20020;-61
2021/09/24 09:22:46;;;;;;;71.57;19.00;;;16.80;98.70;;;;;;5094671;28;20040;-61
2021/09/24 09:25:21;;;;;;;77.47;21.13;;;16.80;98.50;;;;;;5078366;28;20312;-61
2021/09/24 09:27:47;;;;;;;95.53;21.17;;;16.80;98.50;;;;;;5062001;28;20115;-62
2021/09/24 09:30:13;;;;;;;92.93;19.77;;;16.90;98.40;;;;;;5061997;28;20043;-61
2021/09/24 09:32:40;;;;;;;79.05;20.05;;;16.90;98.40;;;;;;5044310;28;20028;-61
2021/09/24 09:35:06;;;;;;;81.30;19.45;;;16.90;98.30;;;;;;5064726;28;20097;-61
2021/09/24 09:37:34;;;;;;;99.55;19.95;;;16.90;98.20;;;;;;5075783;28;20046;-61
2021/09/24 09:40:04;;;;;;;67.75;17.65;;;17.00;98.20;;;;;;5080608;28;20034;-61
2021/09/24 09:42:40;;;;;;;81.45;19.15;;;17.00;97.80;;;;;;5065167;28;20432;-61
2021/09/24 09:45:06;;;;;;;73.68;19.73;;;17.00;97.90;;;;;;5060714;28;20084;-61
2021/09/24 09:47:33;;;;;;;85.18;18.05;;;17.10;98.10;;;;;;5060811;28;20051;-61
2021/09/24 09:50:10;;;;;;;85.05;18.52;;;17.10;98.00;;;;;;5061756;28;20012;-61
2021/09/24 09:52:55;;;;;;;71.15;18.13;;;17.10;97.90;;;;;;5078124;28;20038;-61
2021/09/24 09:55:21;;;;;;;66.15;19.10;;;17.10;97.90;;;;;;5059217;28;20039;-62
2021/09/24 09:57:51;;;;;;;65.78;18.27;;;17.10;97.70;;;;;;5079516;28;20032;-61
2021/09/24 10:00:17;;;;;;;65.80;16.95;;;17.20;97.70;;;;;;5076685;28;20443;-61
2021/09/24 10:02:43;;;;;;;96.38;20.20;;;17.20;97.60;;;;;;5063100;28;20070;-60
2021/09/24 10:05:08;;;;;;;55.20;17.35;;;17.30;97.60;;;;;;5073589;28;20074;-61
2021/09/24 10:07:38;;;;;;;79.07;19.02;;;17.20;97.40;;;;;;5047563;28;20100;-61
2021/09/24 10:10:14;;;;;;;59.83;17.08;;;17.30;97.50;;;;;;5082132;28;20538;-61
2021/09/24 10:12:40;;;;;;;62.97;16.63;;;17.30;97.40;;;;;;5062424;28;20115;-61
2021/09/24 10:15:07;;;;;;;47.25;15.75;;;17.30;97.40;;;;;;5077358;28;20464;-61
2021/09/24 10:17:33;;;;;;;56.33;16.10;;;17.30;97.30;;;;;;5058774;28;20395;-61
2021/09/24 10:19:59;;;;;;;55.05;16.75;;;17.30;97.10;;;;;;5080049;28;20036;-61
2021/09/24 10:22:24;;;;;;;46.35;14.85;;;17.40;97.00;;;;;;5062143;28;20039;-61
2021/09/24 10:24:51;;;;;;;49.20;15.10;;;17.40;97.00;;;;;;5058359;28;20083;-61
2021/09/24 10:27:24;;;;;;;40.17;15.32;;;17.40;96.90;;;;;;5041665;28;20123;-61
2021/09/24 10:29:49;;;;;;;48.00;14.93;;;17.50;96.80;;;;;;5059307;28;20098;-62
2021/09/24 10:32:17;;;;;;;41.22;13.70;;;17.50;96.90;;;;;;5060393;28;20032;-61
2021/09/24 10:35:04;;;;;;;35.03;14.77;;;17.50;96.80;;;;;;5041312;28;20058;-61
2021/09/24 10:37:31;;;;;;;41.22;13.85;;;17.50;96.50;;;;;;5084503;28;20058;-61
2021/09/24 10:39:59;;;;;;;50.53;14.32;;;17.60;96.50;;;;;;5043435;28;20746;-61
2021/09/24 10:42:34;;;;;;;36.47;13.50;;;17.60;96.40;;;;;;5059386;28;20020;-61
2021/09/24 10:45:19;;;;;;;43.07;13.73;;;17.70;96.30;;;;;;5077837;28;20058;-61
2021/09/24 10:47:50;;;;;;;34.92;13.98;;;17.70;96.20;;;;;;5061555;28;20035;-61
2021/09/24 10:50:37;;;;;;;26.00;13.07;;;17.70;96.10;;;;;;5075428;28;20063;-61
2021/09/24 10:53:22;;;;;;;38.67;12.75;;;17.80;95.90;;;;;;5078384;28;20511;-61
2021/09/24 10:55:48;;;;;;;54.20;15.38;;;17.80;95.80;;;;;;5078687;28;20759;-61
2021/09/24 10:58:39;;;;;;;49.35;13.13;;;17.90;95.60;;;;;;5080259;28;20024;-61
2021/09/24 11:01:12;;;;;;;42.35;13.10;;;17.90;95.20;;;;;;5078061;28;20439;-61
2021/09/24 11:04:10;;;;;;;49.88;12.85;;;18.00;95.10;;;;;;5056000;28;20043;-61
2021/09/24 11:06:43;;;;;;;43.83;12.80;;;18.00;94.80;;;;;;5059343;28;20578;-61
2021/09/24 11:09:10;;;;;;;41.65;11.35;;;18.00;94.40;;;;;;5069135;28;20425;-61
2021/09/24 11:11:37;;;;;;;38.00;10.57;;;18.10;94.10;;;;;;5059112;28;20602;-61
2021/09/24 11:14:26;;;;;;;31.63;10.48;;;18.10;93.60;;;;;;5039006;28;20169;-61
2021/09/24 11:16:53;;;;;;;26.08;9.75;;;18.20;93.40;;;;;;5072764;28;20035;-61
2021/09/24 11:19:31;;;;;;;40.03;10.00;;;18.20;92.90;;;;;;5071867;28;20066;-60
2021/09/24 11:21:59;;;;;;;27.40;8.98;;;18.30;92.50;;;;;;5054665;28;20601;-61
2021/09/24 11:24:32;;;;;;;43.00;10.38;;;18.30;92.20;;;;;;5055231;28;20070;-61
2021/09/24 11:27:05;;;;;;;38.50;8.45;;;18.40;92.00;;;;;;5052915;28;20033;-61
2021/09/24 11:29:30;;;;;;;36.03;9.77;;;18.40;91.70;;;;;;5038979;28;20024;-61
2021/09/24 11:31:56;;;;;;;44.83;9.00;;;18.40;91.60;;;;;;5054010;28;20044;-61
2021/09/24 11:34:38;;;;;;;21.83;7.82;;;18.50;91.60;;;;;;5055419;28;20075;-61
2021/09/24 11:37:19;;;;;;;38.05;8.00;;;18.50;91.20;;;;;;5073578;28;20033;-61
2021/09/24 11:39:46;;;;;;;34.50;8.80;;;18.60;90.90;;;;;;5037312;28;20043;-61
2021/09/24 11:42:13;;;;;;;28.63;8.85;;;18.60;90.60;;;;;;5039954;28;20291;-61
2021/09/24 11:44:50;;;;;;;31.35;7.55;;;18.60;90.40;;;;;;5069330;28;20422;-61
2021/09/24 11:47:40;;;;;;;46.72;8.40;;;18.70;90.10;;;;;;5075059;28;20043;-61
2021/09/24 11:50:08;;;;;;;40.88;6.97;;;18.80;89.00;;;;;;5057130;28;20040;-61
2021/09/24 11:52:47;;;;;;;39.65;7.50;;;18.80;87.40;;;;;;5077934;28;20055;-61
2021/09/24 11:55:33;;;;;;;47.47;7.60;;;18.90;86.80;;;;;;5037948;28;20047;-61
2021/09/24 11:58:10;;;;;;;40.58;8.05;;;18.90;85.70;;;;;;5070079;28;20148;-61
2021/09/24 12:00:45;;;;;;;40.22;7.72;;;19.00;85.40;;;;;;5073494;28;20099;-61
2021/09/24 12:03:22;;;;;;;40.25;8.45;;;19.10;85.10;;;;;;5074092;28;20492;-61
2021/09/24 12:06:04;;;;;;;41.65;8.15;;;19.10;85.20;;;;;;5055379;28;20032;-62
2021/09/24 12:08:39;;;;;;;45.95;8.65;;;19.20;85.50;;;;;;5076196;28;20087;-61
2021/09/24 12:11:07;;;;;;;50.72;8.85;;;19.20;85.50;;;;;;5051714;28;20042;-61
2021/09/24 12:13:41;;;;;;;43.83;7.85;;;19.30;85.60;;;;;;5061040;28;20036;-61
2021/09/24 12:16:07;;;;;;;41.10;8.55;;;19.30;85.00;;;;;;5044113;28;20547;-61
2021/09/24 12:18:46;;;;;;;47.30;8.25;;;19.40;85.00;;;;;;5044319;28;20016;-61
2021/09/24 12:21:12;;;;;;;55.58;8.70;;;19.40;84.90;;;;;;5047230;28;20040;-61
2021/09/24 12:23:38;;;;;;;57.13;9.23;;;19.50;84.50;;;;;;5054189;28;20071;-61
2021/09/24 12:26:05;;;;;;;38.92;8.05;;;19.50;83.70;;;;;;5050320;28;20044;-61
2021/09/24 12:28:30;;;;;;;53.92;8.55;;;19.50;82.40;;;;;;5050611;28;20598;-62
2021/09/24 12:30:56;;;;;;;67.85;9.18;;;19.60;82.40;;;;;;5053263;28;20038;-61
2021/09/24 12:33:22;;;;;;;57.10;9.02;;;19.70;82.20;;;;;;5061613;28;20630;-61